createdAt,value
2017-12-24T00:00:12.813Z,0.00
2017-12-24T00:01:12.856Z,0.00
2017-12-24T00:02:12.899Z,0.00
2017-12-24T00:03:13.875Z,0.00
2017-12-24T00:04:12.982Z,0.00
2017-12-24T00:05:13.038Z,0.00
2017-12-24T00:06:13.076Z,0.00
2017-12-24T00:07:13.114Z,0.00
2017-12-24T00:08:13.172Z,0.00
2017-12-24T00:09:13.201Z,0.00
2017-12-24T00:10:13.240Z,0.00
2017-12-24T00:11:13.283Z,0.00
2017-12-24T00:12:13.351Z,0.00
2017-12-24T00:13:13.404Z,0.00
2017-12-24T00:14:13.413Z,0.00
2017-12-24T00:15:13.458Z,0.00
2017-12-24T00:16:13.499Z,0.00
2017-12-24T00:17:13.547Z,0.00
2017-12-24T00:18:13.610Z,0.00
2017-12-24T00:19:13.628Z,0.00
2017-12-24T00:20:13.678Z,0.00
2017-12-24T00:21:13.715Z,0.00
2017-12-24T00:22:13.763Z,0.00
2017-12-24T00:23:13.818Z,0.00
2017-12-24T00:24:13.846Z,0.00
2017-12-24T00:25:13.889Z,0.00
2017-12-24T00:26:13.953Z,0.00
2017-12-24T00:27:13.972Z,0.00
2017-12-24T00:28:14.032Z,0.00
2017-12-24T00:29:14.062Z,0.00
2017-12-24T00:30:14.102Z,0.00
2017-12-24T00:31:14.147Z,0.00
2017-12-24T00:32:14.189Z,0.00
2017-12-24T00:33:14.250Z,0.00
2017-12-24T00:34:14.279Z,0.00
2017-12-24T00:35:14.353Z,0.00
2017-12-24T00:36:14.365Z,0.00
2017-12-24T00:37:14.404Z,0.00
2017-12-24T00:38:14.464Z,0.00
2017-12-24T00:39:14.494Z,0.00
2017-12-24T00:40:14.532Z,0.00
2017-12-24T00:41:14.575Z,0.00
2017-12-24T00:42:14.620Z,0.00
2017-12-24T00:43:14.679Z,0.00
2017-12-24T00:44:14.712Z,0.00
2017-12-24T00:45:14.769Z,0.00
2017-12-24T00:46:14.790Z,0.00
2017-12-24T00:47:14.836Z,0.00
2017-12-24T00:48:14.879Z,0.00
2017-12-24T00:49:14.921Z,0.00
2017-12-24T00:50:14.983Z,0.00
2017-12-24T00:51:15.010Z,0.00
2017-12-24T00:52:15.052Z,0.00
2017-12-24T00:53:15.098Z,0.00
2017-12-24T00:54:15.138Z,0.00
2017-12-24T00:55:15.196Z,0.00
2017-12-24T00:56:15.223Z,0.00
2017-12-24T00:57:15.266Z,0.00
2017-12-24T00:58:15.307Z,0.00
2017-12-24T00:59:15.354Z,0.00
2017-12-24T01:00:15.416Z,0.00
2017-12-24T01:01:15.441Z,0.00
2017-12-24T01:02:15.481Z,0.00
2017-12-24T01:03:15.526Z,0.00
2017-12-24T01:04:15.569Z,0.00
2017-12-24T01:05:15.628Z,0.00
2017-12-24T01:06:15.655Z,0.00
2017-12-24T01:07:15.699Z,0.00
2017-12-24T01:08:15.751Z,0.00
2017-12-24T01:09:15.796Z,0.00
2017-12-24T01:10:15.846Z,0.00
2017-12-24T01:11:15.871Z,0.00
2017-12-24T01:12:15.913Z,0.00
2017-12-24T01:13:15.966Z,0.00
2017-12-24T01:14:16.001Z,0.00
2017-12-24T01:15:16.062Z,0.00
2017-12-24T01:16:16.101Z,0.00
2017-12-24T01:17:16.131Z,0.00
2017-12-24T01:18:16.172Z,0.00
2017-12-24T01:19:16.214Z,0.00
2017-12-24T01:20:16.284Z,0.00
2017-12-24T01:21:16.301Z,0.00
2017-12-24T01:22:16.345Z,0.00
2017-12-24T01:23:16.392Z,0.00
2017-12-24T01:24:16.434Z,0.00
2017-12-24T01:25:16.489Z,0.00
2017-12-24T01:26:16.520Z,0.00
2017-12-24T01:27:16.579Z,0.00
2017-12-24T01:28:16.606Z,0.00
2017-12-24T01:29:16.648Z,0.00
2017-12-24T01:30:16.695Z,0.00
2017-12-24T01:31:16.740Z,0.00
2017-12-24T01:32:16.791Z,0.00
2017-12-24T01:33:16.820Z,0.00
2017-12-24T01:34:16.862Z,0.00
2017-12-24T01:35:16.907Z,0.00
2017-12-24T01:36:16.950Z,0.00
2017-12-24T01:37:17.012Z,0.00
2017-12-24T01:38:17.034Z,0.00
2017-12-24T01:39:17.082Z,0.00
2017-12-24T01:40:17.130Z,0.00
2017-12-24T01:41:17.164Z,0.00
2017-12-24T01:42:17.225Z,0.00
2017-12-24T01:43:17.253Z,0.00
2017-12-24T01:44:17.294Z,0.00
2017-12-24T01:45:18.069Z,0.00
2017-12-24T01:46:17.400Z,0.00
2017-12-24T01:47:17.429Z,0.00
2017-12-24T01:48:17.465Z,0.00
2017-12-24T01:49:17.510Z,0.00
2017-12-24T01:50:17.553Z,0.00
2017-12-24T01:51:17.621Z,0.00
2017-12-24T01:52:17.642Z,0.00
2017-12-24T01:53:17.698Z,0.00
2017-12-24T01:54:17.726Z,0.00
2017-12-24T01:55:17.768Z,0.00
2017-12-24T01:56:17.812Z,0.00
2017-12-24T01:57:17.873Z,0.00
2017-12-24T01:58:17.916Z,0.00
2017-12-24T01:59:17.941Z,0.00
2017-12-24T02:00:17.984Z,0.00
2017-12-24T02:01:18.030Z,0.00
2017-12-24T02:02:18.071Z,0.00
2017-12-24T02:03:18.133Z,0.00
2017-12-24T02:04:18.162Z,0.00
2017-12-24T02:05:18.201Z,0.00
2017-12-24T02:06:18.243Z,0.00
2017-12-24T02:07:18.287Z,0.00
2017-12-24T02:08:18.348Z,0.00
2017-12-24T02:09:18.375Z,0.00
2017-12-24T02:10:18.415Z,0.00
2017-12-24T02:11:18.460Z,0.00
2017-12-24T02:12:18.509Z,0.00
2017-12-24T02:13:18.568Z,0.00
2017-12-24T02:14:18.591Z,0.00
2017-12-24T02:15:18.630Z,0.00
2017-12-24T02:16:18.680Z,0.00
2017-12-24T02:17:18.717Z,0.00
2017-12-24T02:18:18.777Z,0.00
2017-12-24T02:19:18.819Z,0.00
2017-12-24T02:20:18.847Z,0.00
2017-12-24T02:21:18.897Z,0.00
2017-12-24T02:22:18.932Z,0.00
2017-12-24T02:23:18.986Z,0.00
2017-12-24T02:24:19.035Z,0.00
2017-12-24T02:25:19.063Z,0.00
2017-12-24T02:26:19.106Z,0.00
2017-12-24T02:27:19.153Z,0.00
2017-12-24T02:28:19.192Z,0.00
2017-12-24T02:29:19.249Z,0.00
2017-12-24T02:30:19.278Z,0.00
2017-12-24T02:31:19.319Z,0.00
2017-12-24T02:32:19.364Z,0.00
2017-12-24T02:33:19.413Z,0.00
2017-12-24T02:34:19.465Z,0.00
2017-12-24T02:35:19.491Z,0.00
2017-12-24T02:36:19.536Z,0.00
2017-12-24T02:37:19.578Z,0.00
2017-12-24T02:38:19.619Z,0.00
2017-12-24T02:39:19.682Z,0.00
2017-12-24T02:40:19.707Z,0.00
2017-12-24T02:41:19.752Z,0.00
2017-12-24T02:42:19.794Z,0.00
2017-12-24T02:43:19.835Z,0.00
2017-12-24T02:44:19.900Z,0.00
2017-12-24T02:45:19.923Z,0.00
2017-12-24T02:46:19.966Z,0.00
2017-12-24T02:47:20.009Z,0.00
2017-12-24T02:48:20.052Z,0.00
2017-12-24T02:49:20.115Z,0.00
2017-12-24T02:50:20.137Z,0.00
2017-12-24T02:51:20.182Z,0.00
2017-12-24T02:52:20.224Z,0.00
2017-12-24T02:53:20.271Z,0.00
2017-12-24T02:54:20.333Z,0.00
2017-12-24T02:55:20.352Z,0.00
2017-12-24T02:56:20.403Z,0.00
2017-12-24T02:57:20.439Z,0.00
2017-12-24T02:58:20.485Z,0.00
2017-12-24T02:59:20.541Z,0.00
2017-12-24T03:00:20.566Z,0.00
2017-12-24T03:01:20.615Z,0.00
2017-12-24T03:02:20.654Z,0.00
2017-12-24T03:03:20.697Z,0.00
2017-12-24T03:04:20.763Z,0.00
2017-12-24T03:05:22.070Z,0.00
2017-12-24T03:06:21.570Z,0.00
2017-12-24T03:07:20.869Z,0.00
2017-12-24T03:08:20.911Z,0.00
2017-12-24T03:09:20.972Z,0.00
2017-12-24T03:10:20.998Z,0.00
2017-12-24T03:11:21.059Z,0.00
2017-12-24T03:12:21.086Z,0.00
2017-12-24T03:13:21.127Z,0.00
2017-12-24T03:14:21.170Z,0.00
2017-12-24T03:15:21.240Z,0.00
2017-12-24T03:16:21.272Z,0.00
2017-12-24T03:17:21.874Z,0.00
2017-12-24T03:18:21.342Z,0.00
2017-12-24T03:19:21.403Z,0.00
2017-12-24T03:20:21.426Z,0.00
2017-12-24T03:21:21.493Z,0.00
2017-12-24T03:22:21.516Z,0.00
2017-12-24T03:23:21.557Z,0.00
2017-12-24T03:24:22.379Z,0.00
2017-12-24T03:25:21.647Z,0.00
2017-12-24T03:26:21.703Z,0.00
2017-12-24T03:27:21.736Z,0.00
2017-12-24T03:28:21.773Z,0.00
2017-12-24T03:29:21.816Z,0.00
2017-12-24T03:30:21.859Z,0.00
2017-12-24T03:31:21.921Z,0.00
2017-12-24T03:32:21.951Z,0.00
2017-12-24T03:33:21.988Z,0.00
2017-12-24T03:34:22.030Z,0.00
2017-12-24T03:35:22.074Z,0.00
2017-12-24T03:36:22.133Z,0.00
2017-12-24T03:37:22.160Z,0.00
2017-12-24T03:38:22.208Z,0.00
2017-12-24T03:39:22.247Z,0.00
2017-12-24T03:40:22.288Z,0.00
2017-12-24T03:41:22.345Z,0.00
2017-12-24T03:42:22.395Z,0.00
2017-12-24T03:43:22.416Z,0.00
2017-12-24T03:44:22.459Z,0.00
2017-12-24T03:45:22.504Z,0.00
2017-12-24T03:46:22.544Z,0.00
2017-12-24T03:47:22.603Z,0.00
2017-12-24T03:48:22.629Z,0.00
2017-12-24T03:49:22.675Z,0.00
2017-12-24T03:50:22.715Z,0.00
2017-12-24T03:51:22.760Z,0.00
2017-12-24T03:52:22.818Z,0.00
2017-12-24T03:53:22.861Z,0.00
2017-12-24T03:54:22.888Z,0.00
2017-12-24T03:55:22.930Z,0.00
2017-12-24T03:56:22.976Z,0.00
2017-12-24T03:57:23.023Z,0.00
2017-12-24T03:58:23.075Z,0.00
2017-12-24T03:59:23.120Z,0.00
2017-12-24T04:00:23.145Z,0.00
2017-12-24T04:01:23.188Z,0.00
2017-12-24T04:02:23.233Z,0.00
2017-12-24T04:03:23.274Z,0.00
2017-12-24T04:04:23.336Z,0.00
2017-12-24T04:05:23.362Z,0.00
2017-12-24T04:06:23.404Z,0.00
2017-12-24T04:07:23.446Z,0.00
2017-12-24T04:08:23.489Z,0.00
2017-12-24T04:09:23.546Z,0.00
2017-12-24T04:10:23.574Z,0.00
2017-12-24T04:11:23.617Z,0.00
2017-12-24T04:12:23.663Z,0.00
2017-12-24T04:13:23.704Z,0.00
2017-12-24T04:14:23.758Z,0.00
2017-12-24T04:15:23.788Z,0.00
2017-12-24T04:16:23.829Z,0.00
2017-12-24T04:17:23.873Z,0.00
2017-12-24T04:18:23.913Z,0.00
2017-12-24T04:19:23.983Z,0.00
2017-12-24T04:20:23.998Z,0.00
2017-12-24T04:21:24.043Z,0.00
2017-12-24T04:22:24.085Z,0.00
2017-12-24T04:23:24.128Z,0.00
2017-12-24T04:24:24.192Z,0.00
2017-12-24T04:25:24.217Z,0.00
2017-12-24T04:26:24.256Z,0.00
2017-12-24T04:27:24.300Z,0.00
2017-12-24T04:28:24.345Z,0.00
2017-12-24T04:29:24.403Z,0.00
2017-12-24T04:30:24.427Z,0.00
2017-12-24T04:31:24.470Z,0.00
2017-12-24T04:32:24.511Z,0.00
2017-12-24T04:33:24.556Z,0.00
2017-12-24T04:34:24.611Z,0.00
2017-12-24T04:35:24.643Z,0.00
2017-12-24T04:36:24.682Z,0.00
2017-12-24T04:37:24.723Z,0.00
2017-12-24T04:38:24.769Z,0.00
2017-12-24T04:39:24.825Z,0.00
2017-12-24T04:40:24.854Z,0.00
2017-12-24T04:41:24.894Z,0.00
2017-12-24T04:42:24.939Z,0.00
2017-12-24T04:43:24.996Z,0.00
2017-12-24T04:44:25.021Z,0.00
2017-12-24T04:45:25.079Z,0.00
2017-12-24T04:46:25.111Z,0.00
2017-12-24T04:47:25.148Z,0.00
2017-12-24T04:48:25.191Z,0.00
2017-12-24T04:49:25.234Z,0.00
2017-12-24T04:50:25.292Z,0.00
2017-12-24T04:51:25.321Z,0.00
2017-12-24T04:52:25.361Z,0.00
2017-12-24T04:53:25.421Z,0.00
2017-12-24T04:54:25.447Z,0.00
2017-12-24T04:55:25.491Z,0.00
2017-12-24T04:56:25.533Z,0.00
2017-12-24T04:57:25.577Z,0.00
2017-12-24T04:58:25.634Z,0.00
2017-12-24T04:59:25.659Z,0.00
2017-12-24T05:00:25.707Z,0.00
2017-12-24T05:01:25.745Z,0.00
2017-12-24T05:02:25.788Z,0.00
2017-12-24T05:03:25.848Z,0.00
2017-12-24T05:04:25.876Z,0.00
2017-12-24T05:05:25.934Z,0.00
2017-12-24T05:06:25.957Z,0.00
2017-12-24T05:07:26.005Z,0.00
2017-12-24T05:08:26.044Z,0.00
2017-12-24T05:09:26.109Z,0.00
2017-12-24T05:10:26.150Z,0.00
2017-12-24T05:11:26.175Z,0.00
2017-12-24T05:12:26.214Z,0.00
2017-12-24T05:13:26.256Z,0.00
2017-12-24T05:14:26.298Z,0.00
2017-12-24T05:15:26.358Z,0.00
2017-12-24T05:16:26.402Z,0.00
2017-12-24T05:17:26.428Z,0.00
2017-12-24T05:18:26.469Z,0.00
2017-12-24T05:19:27.066Z,0.00
2017-12-24T05:20:26.571Z,0.00
2017-12-24T05:21:26.615Z,0.00
2017-12-24T05:22:26.647Z,0.00
2017-12-24T05:23:26.682Z,0.00
2017-12-24T05:24:26.726Z,0.00
2017-12-24T05:25:26.766Z,0.00
2017-12-24T05:26:26.824Z,0.00
2017-12-24T05:27:26.850Z,0.00
2017-12-24T05:28:26.897Z,0.00
2017-12-24T05:29:26.938Z,0.00
2017-12-24T05:30:26.980Z,0.00
2017-12-24T05:31:27.040Z,0.00
2017-12-24T05:32:27.063Z,0.00
2017-12-24T05:33:27.109Z,0.00
2017-12-24T05:34:27.147Z,0.00
2017-12-24T05:35:27.193Z,0.00
2017-12-24T05:36:27.250Z,0.00
2017-12-24T05:37:27.295Z,0.00
2017-12-24T05:38:27.316Z,0.00
2017-12-24T05:39:27.360Z,0.00
2017-12-24T05:40:27.402Z,0.00
2017-12-24T05:41:27.450Z,0.00
2017-12-24T05:42:27.505Z,0.00
2017-12-24T05:43:27.529Z,0.00
2017-12-24T05:44:27.574Z,0.00
2017-12-24T05:45:27.617Z,0.00
2017-12-24T05:46:27.657Z,0.00
2017-12-24T05:47:27.716Z,0.00
2017-12-24T05:48:27.744Z,0.00
2017-12-24T05:49:27.785Z,0.00
2017-12-24T05:50:27.829Z,0.00
2017-12-24T05:51:27.870Z,0.00
2017-12-24T05:52:27.928Z,0.00
2017-12-24T05:53:27.990Z,0.00
2017-12-24T05:54:27.997Z,0.00
2017-12-24T05:55:28.041Z,0.00
2017-12-24T05:56:28.082Z,0.00
2017-12-24T05:57:42.867Z,0.00
2017-12-24T05:58:28.192Z,0.00
2017-12-24T05:59:28.210Z,0.00
2017-12-24T06:00:28.252Z,0.00
2017-12-24T06:01:28.295Z,0.00
2017-12-24T06:02:28.868Z,0.00
2017-12-24T06:03:28.396Z,0.00
2017-12-24T06:04:28.441Z,0.00
2017-12-24T06:05:28.464Z,0.00
2017-12-24T06:06:28.507Z,0.00
2017-12-24T06:07:28.549Z,0.00
2017-12-24T06:08:28.595Z,0.00
2017-12-24T06:09:28.655Z,0.00
2017-12-24T06:10:28.679Z,0.00
2017-12-24T06:11:28.722Z,0.00
2017-12-24T06:12:28.761Z,0.00
2017-12-24T06:13:28.809Z,0.00
2017-12-24T06:14:28.884Z,0.00
2017-12-24T06:15:28.890Z,0.00
2017-12-24T06:16:28.932Z,0.00
2017-12-24T06:17:28.973Z,0.00
2017-12-24T06:18:29.016Z,0.00
2017-12-24T06:19:29.079Z,0.00
2017-12-24T06:20:29.115Z,0.00
2017-12-24T06:21:29.145Z,0.00
2017-12-24T06:22:29.186Z,0.00
2017-12-24T06:23:29.228Z,0.00
2017-12-24T06:24:29.272Z,0.00
2017-12-24T06:25:29.338Z,0.00
2017-12-24T06:26:29.355Z,0.00
2017-12-24T06:27:29.406Z,0.00
2017-12-24T06:28:29.440Z,0.00
2017-12-24T06:29:29.486Z,0.00
2017-12-24T06:30:29.544Z,0.00
2017-12-24T06:31:29.568Z,0.00
2017-12-24T06:32:29.611Z,0.00
2017-12-24T06:33:29.655Z,0.00
2017-12-24T06:34:29.694Z,0.00
2017-12-24T06:35:29.756Z,0.00
2017-12-24T06:36:29.783Z,0.00
2017-12-24T06:37:29.823Z,4.00
2017-12-24T06:38:29.864Z,0.00
2017-12-24T06:39:29.913Z,4.00
2017-12-24T06:40:29.976Z,4.00
2017-12-24T06:41:29.992Z,4.00
2017-12-24T06:42:30.039Z,4.00
2017-12-24T06:43:30.077Z,4.00
2017-12-24T06:44:30.120Z,8.00
2017-12-24T06:45:30.180Z,8.00
2017-12-24T06:46:30.204Z,8.00
2017-12-24T06:47:30.264Z,12.00
2017-12-24T06:48:30.289Z,12.00
2017-12-24T06:49:30.332Z,12.00
2017-12-24T06:50:30.376Z,16.00
2017-12-24T06:51:30.418Z,20.00
2017-12-24T06:52:30.477Z,24.00
2017-12-24T06:53:30.514Z,28.00
2017-12-24T06:54:30.546Z,32.00
2017-12-24T06:55:30.594Z,36.00
2017-12-24T06:56:30.646Z,40.00
2017-12-24T06:57:30.689Z,44.00
2017-12-24T06:58:30.721Z,52.00
2017-12-24T06:59:30.755Z,56.00
2017-12-24T07:00:30.800Z,60.00
2017-12-24T07:01:30.841Z,68.00
2017-12-24T07:02:30.899Z,76.00
2017-12-24T07:03:30.925Z,84.00
2017-12-24T07:04:30.976Z,92.00
2017-12-24T07:05:31.055Z,104.00
2017-12-24T07:06:31.053Z,112.00
2017-12-24T07:07:31.110Z,120.00
2017-12-24T07:08:31.158Z,128.00
2017-12-24T07:09:31.186Z,136.00
2017-12-24T07:10:31.227Z,144.00
2017-12-24T07:11:31.267Z,152.00
2017-12-24T07:12:31.307Z,160.00
2017-12-24T07:13:31.368Z,168.00
2017-12-24T07:14:31.396Z,180.00
2017-12-24T07:15:31.442Z,196.00
2017-12-24T07:16:31.476Z,208.00
2017-12-24T07:17:31.540Z,220.00
2017-12-24T07:18:31.561Z,232.00
2017-12-24T07:19:31.624Z,248.00
2017-12-24T07:20:31.648Z,264.00
2017-12-24T07:21:31.689Z,276.00
2017-12-24T07:22:31.730Z,288.00
2017-12-24T07:23:31.774Z,304.00
2017-12-24T07:24:31.835Z,320.00
2017-12-24T07:25:31.858Z,340.00
2017-12-24T07:26:31.905Z,352.00
2017-12-24T07:27:31.946Z,368.00
2017-12-24T07:28:31.986Z,388.00
2017-12-24T07:29:32.049Z,408.00
2017-12-24T07:30:32.071Z,432.00
2017-12-24T07:31:32.118Z,448.00
2017-12-24T07:32:32.155Z,472.00
2017-12-24T07:33:32.214Z,496.00
2017-12-24T07:34:32.244Z,524.00
2017-12-24T07:35:32.283Z,548.00
2017-12-24T07:36:32.327Z,572.00
2017-12-24T07:37:32.367Z,592.00
2017-12-24T07:38:32.470Z,608.00
2017-12-24T07:39:32.452Z,632.00
2017-12-24T07:40:32.494Z,668.00
2017-12-24T07:41:32.539Z,696.00
2017-12-24T07:42:32.579Z,712.00
2017-12-24T07:43:32.679Z,744.00
2017-12-24T07:44:32.666Z,788.00
2017-12-24T07:45:32.706Z,804.00
2017-12-24T07:46:32.757Z,844.00
2017-12-24T07:47:32.791Z,884.00
2017-12-24T07:48:32.853Z,916.00
2017-12-24T07:49:32.877Z,936.00
2017-12-24T07:50:32.918Z,988.00
2017-12-24T07:51:32.963Z,1020.00
2017-12-24T07:52:33.005Z,1044.00
2017-12-24T07:53:33.063Z,1080.00
2017-12-24T07:54:33.090Z,1148.00
2017-12-24T07:55:33.150Z,1184.00
2017-12-24T07:56:33.175Z,1220.00
2017-12-24T07:57:33.224Z,1248.00
2017-12-24T07:58:33.267Z,1228.00
2017-12-24T07:59:33.321Z,1212.00
2017-12-24T08:00:33.358Z,1220.00
2017-12-24T08:01:33.384Z,1252.00
2017-12-24T08:02:33.426Z,1288.00
2017-12-24T08:03:33.469Z,1336.00
2017-12-24T08:04:33.514Z,1384.00
2017-12-24T08:05:33.573Z,1444.00
2017-12-24T08:06:33.596Z,1536.00
2017-12-24T08:07:33.637Z,1636.00
2017-12-24T08:08:33.683Z,1724.00
2017-12-24T08:09:33.723Z,1824.00
2017-12-24T08:10:33.785Z,1892.00
2017-12-24T08:11:33.806Z,1940.00
2017-12-24T08:12:33.851Z,1976.00
2017-12-24T08:13:33.891Z,1948.00
2017-12-24T08:14:33.933Z,1908.00
2017-12-24T08:15:33.999Z,1964.00
2017-12-24T08:16:34.019Z,2036.00
2017-12-24T08:17:34.062Z,2084.00
2017-12-24T08:18:34.101Z,2076.00
2017-12-24T08:19:34.142Z,2060.00
2017-12-24T08:20:34.205Z,2100.00
2017-12-24T08:21:34.247Z,2100.00
2017-12-24T08:22:34.271Z,2128.00
2017-12-24T08:23:34.314Z,2148.00
2017-12-24T08:24:34.356Z,2144.00
2017-12-24T08:25:34.401Z,2136.00
2017-12-24T08:26:34.456Z,2148.00
2017-12-24T08:27:34.482Z,2216.00
2017-12-24T08:28:34.531Z,2308.00
2017-12-24T08:29:34.568Z,2368.00
2017-12-24T08:30:34.614Z,2412.00
2017-12-24T08:31:34.669Z,2452.00
2017-12-24T08:32:34.694Z,2468.00
2017-12-24T08:33:34.747Z,2480.00
2017-12-24T08:34:34.784Z,2496.00
2017-12-24T08:35:34.823Z,2532.00
2017-12-24T08:36:34.878Z,2604.00
2017-12-24T08:37:34.908Z,2664.00
2017-12-24T08:38:34.948Z,2640.00
2017-12-24T08:39:34.991Z,2612.00
2017-12-24T08:40:35.044Z,2568.00
2017-12-24T08:41:35.093Z,2540.00
2017-12-24T08:42:35.117Z,2476.00
2017-12-24T08:43:35.159Z,2472.00
2017-12-24T08:44:35.201Z,2520.00
2017-12-24T08:45:35.245Z,2616.00
2017-12-24T08:46:35.302Z,2688.00
2017-12-24T08:47:35.328Z,2660.00
2017-12-24T08:48:35.371Z,2648.00
2017-12-24T08:49:35.412Z,2684.00
2017-12-24T08:50:35.454Z,2800.00
2017-12-24T08:51:35.518Z,2876.00
2017-12-24T08:52:35.557Z,2876.00
2017-12-24T08:53:35.590Z,2892.00
2017-12-24T08:54:35.624Z,2872.00
2017-12-24T08:55:35.666Z,2900.00
2017-12-24T08:56:35.711Z,2928.00
2017-12-24T08:57:35.765Z,2920.00
2017-12-24T08:58:35.793Z,2972.00
2017-12-24T08:59:35.838Z,3084.00
2017-12-24T09:00:35.881Z,3224.00
2017-12-24T09:01:35.921Z,3260.00
2017-12-24T09:02:35.988Z,3224.00
2017-12-24T09:03:36.023Z,3308.00
2017-12-24T09:04:36.052Z,3412.00
2017-12-24T09:05:36.091Z,3480.00
2017-12-24T09:06:36.133Z,3560.00
2017-12-24T09:07:36.175Z,3656.00
2017-12-24T09:08:37.058Z,3704.00
2017-12-24T09:09:36.261Z,3804.00
2017-12-24T09:10:36.303Z,3848.00
2017-12-24T09:11:36.345Z,3912.00
2017-12-24T09:12:36.388Z,3928.00
2017-12-24T09:13:36.460Z,4004.00
2017-12-24T09:14:36.472Z,4072.00
2017-12-24T09:15:36.513Z,4104.00
2017-12-24T09:16:36.557Z,4120.00
2017-12-24T09:17:36.599Z,4112.00
2017-12-24T09:18:36.663Z,4140.00
2017-12-24T09:19:36.703Z,4156.00
2017-12-24T09:20:36.726Z,4172.00
2017-12-24T09:21:36.768Z,4224.00
2017-12-24T09:22:36.811Z,4300.00
2017-12-24T09:23:36.854Z,4380.00
2017-12-24T09:24:36.915Z,4400.00
2017-12-24T09:25:36.957Z,4328.00
2017-12-24T09:26:36.981Z,4304.00
2017-12-24T09:27:37.023Z,4352.00
2017-12-24T09:28:37.066Z,4496.00
2017-12-24T09:29:37.121Z,4588.00
2017-12-24T09:30:37.171Z,4536.00
2017-12-24T09:31:37.194Z,4496.00
2017-12-24T09:32:37.237Z,4424.00
2017-12-24T09:33:37.282Z,4432.00
2017-12-24T09:34:37.319Z,4548.00
2017-12-24T09:35:37.383Z,4640.00
2017-12-24T09:36:37.405Z,4700.00
2017-12-24T09:37:37.451Z,4700.00
2017-12-24T09:38:37.492Z,4684.00
2017-12-24T09:39:37.535Z,4756.00
2017-12-24T09:40:37.591Z,4804.00
2017-12-24T09:41:37.633Z,4836.00
2017-12-24T09:42:37.657Z,4792.00
2017-12-24T09:43:37.700Z,4660.00
2017-12-24T09:44:37.790Z,4600.00
2017-12-24T09:45:37.794Z,4672.00
2017-12-24T09:46:37.854Z,4748.00
2017-12-24T09:47:37.871Z,4720.00
2017-12-24T09:48:37.914Z,4664.00
2017-12-24T09:49:37.964Z,4616.00
2017-12-24T09:50:37.999Z,4584.00
2017-12-24T09:51:38.060Z,4424.00
2017-12-24T09:52:38.082Z,4320.00
2017-12-24T09:53:38.129Z,4308.00
2017-12-24T09:54:38.169Z,4456.00
2017-12-24T09:55:38.212Z,4472.00
2017-12-24T09:56:38.277Z,4568.00
2017-12-24T09:57:38.313Z,4612.00
2017-12-24T09:58:38.340Z,4636.00
2017-12-24T09:59:38.383Z,4600.00
2017-12-24T10:00:38.431Z,4584.00
2017-12-24T10:01:38.466Z,4628.00
2017-12-24T10:02:38.527Z,4680.00
2017-12-24T10:03:38.549Z,4720.00
2017-12-24T10:04:38.595Z,4724.00
2017-12-24T10:05:38.635Z,4768.00
2017-12-24T10:06:38.679Z,4852.00
2017-12-24T10:07:38.733Z,4972.00
2017-12-24T10:08:38.781Z,5124.00
2017-12-24T10:09:38.813Z,5228.00
2017-12-24T10:10:38.846Z,5308.00
2017-12-24T10:11:38.893Z,5448.00
2017-12-24T10:12:38.935Z,5624.00
2017-12-24T10:13:38.998Z,5728.00
2017-12-24T10:14:39.020Z,5748.00
2017-12-24T10:15:39.061Z,5848.00
2017-12-24T10:16:39.104Z,5988.00
2017-12-24T10:17:39.157Z,6124.00
2017-12-24T10:18:39.213Z,6192.00
2017-12-24T10:19:39.233Z,6236.00
2017-12-24T10:20:39.272Z,6232.00
2017-12-24T10:21:39.320Z,6288.00
2017-12-24T10:22:39.360Z,6332.00
2017-12-24T10:23:39.420Z,6300.00
2017-12-24T10:24:39.447Z,6124.00
2017-12-24T10:25:39.497Z,5908.00
2017-12-24T10:26:39.529Z,5700.00
2017-12-24T10:27:39.574Z,5492.00
2017-12-24T10:28:39.638Z,5316.00
2017-12-24T10:29:39.658Z,5288.00
2017-12-24T10:30:39.700Z,5324.00
2017-12-24T10:31:39.749Z,5260.00
2017-12-24T10:32:39.788Z,5148.00
2017-12-24T10:33:39.846Z,5068.00
2017-12-24T10:34:39.869Z,5024.00
2017-12-24T10:35:39.914Z,5020.00
2017-12-24T10:36:39.959Z,5072.00
2017-12-24T10:37:39.998Z,5132.00
2017-12-24T10:38:40.055Z,5220.00
2017-12-24T10:39:40.082Z,5328.00
2017-12-24T10:40:40.158Z,5372.00
2017-12-24T10:41:40.177Z,5464.00
2017-12-24T10:42:40.209Z,5616.00
2017-12-24T10:43:40.255Z,5772.00
2017-12-24T10:44:40.300Z,5912.00
2017-12-24T10:45:40.372Z,5984.00
2017-12-24T10:46:40.380Z,5976.00
2017-12-24T10:47:40.432Z,5900.00
2017-12-24T10:48:40.469Z,5872.00
2017-12-24T10:49:40.513Z,5972.00
2017-12-24T10:50:40.569Z,6180.00
2017-12-24T10:51:40.603Z,6480.00
2017-12-24T10:52:40.639Z,6700.00
2017-12-24T10:53:40.692Z,6864.00
2017-12-24T10:54:40.723Z,6848.00
2017-12-24T10:55:40.785Z,6680.00
2017-12-24T10:56:40.825Z,6536.00
2017-12-24T10:57:40.851Z,6500.00
2017-12-24T10:58:40.892Z,6528.00
2017-12-24T10:59:40.938Z,6580.00
2017-12-24T11:00:41.001Z,6548.00
2017-12-24T11:01:41.023Z,6528.00
2017-12-24T11:02:41.065Z,6524.00
2017-12-24T11:03:41.104Z,6500.00
2017-12-24T11:04:41.162Z,6608.00
2017-12-24T11:05:41.857Z,6752.00
2017-12-24T11:06:41.233Z,6824.00
2017-12-24T11:07:41.280Z,6992.00
2017-12-24T11:08:41.322Z,7260.00
2017-12-24T11:09:41.370Z,7444.00
2017-12-24T11:10:41.436Z,7580.00
2017-12-24T11:11:41.450Z,7696.00
2017-12-24T11:12:41.492Z,7632.00
2017-12-24T11:13:41.534Z,7284.00
2017-12-24T11:14:41.576Z,7000.00
2017-12-24T11:15:41.641Z,6764.00
2017-12-24T11:16:41.680Z,6552.00
2017-12-24T11:17:41.714Z,6544.00
2017-12-24T11:18:41.747Z,6616.00
2017-12-24T11:19:41.794Z,6688.00
2017-12-24T11:20:41.837Z,6764.00
2017-12-24T11:21:41.895Z,6860.00
2017-12-24T11:22:41.921Z,6932.00
2017-12-24T11:23:41.964Z,7048.00
2017-12-24T11:24:42.021Z,7172.00
2017-12-24T11:25:42.052Z,7196.00
2017-12-24T11:26:42.107Z,7004.00
2017-12-24T11:27:42.149Z,6960.00
2017-12-24T11:28:42.176Z,7064.00
2017-12-24T11:29:42.219Z,7076.00
2017-12-24T11:30:42.260Z,7056.00
2017-12-24T11:31:42.304Z,6948.00
2017-12-24T11:32:42.367Z,6920.00
2017-12-24T11:33:42.397Z,7084.00
2017-12-24T11:34:42.431Z,7256.00
2017-12-24T11:35:42.475Z,7204.00
2017-12-24T11:36:42.520Z,6968.00
2017-12-24T11:37:42.580Z,6756.00
2017-12-24T11:38:42.603Z,6728.00
2017-12-24T11:39:42.648Z,6816.00
2017-12-24T11:40:42.691Z,6900.00
2017-12-24T11:41:42.731Z,6872.00
2017-12-24T11:42:42.792Z,6724.00
2017-12-24T11:43:42.818Z,6628.00
2017-12-24T11:44:42.859Z,6512.00
2017-12-24T11:45:42.912Z,6648.00
2017-12-24T11:46:42.949Z,6888.00
2017-12-24T11:47:43.004Z,7372.00
2017-12-24T11:48:43.034Z,7708.00
2017-12-24T11:49:43.090Z,7768.00
2017-12-24T11:50:43.115Z,7712.00
2017-12-24T11:51:43.163Z,7564.00
2017-12-24T11:52:43.208Z,7352.00
2017-12-24T11:53:43.245Z,7168.00
2017-12-24T11:54:43.304Z,7004.00
2017-12-24T11:55:43.331Z,7000.00
2017-12-24T11:56:43.373Z,7132.00
2017-12-24T11:57:43.420Z,7332.00
2017-12-24T11:58:43.459Z,7580.00
2017-12-24T11:59:43.516Z,7636.00
2017-12-24T12:00:43.586Z,7748.00
2017-12-24T12:01:43.586Z,7952.00
2017-12-24T12:02:43.637Z,7940.00
2017-12-24T12:03:43.700Z,7772.00
2017-12-24T12:04:43.721Z,7424.00
2017-12-24T12:05:43.757Z,7140.00
2017-12-24T12:06:43.799Z,7116.00
2017-12-24T12:07:43.853Z,7376.00
2017-12-24T12:08:43.902Z,7668.00
2017-12-24T12:09:43.937Z,7764.00
2017-12-24T12:10:43.972Z,7844.00
2017-12-24T12:11:44.013Z,7840.00
2017-12-24T12:12:44.057Z,7728.00
2017-12-24T12:13:44.115Z,7508.00
2017-12-24T12:14:44.140Z,7312.00
2017-12-24T12:15:44.198Z,7156.00
2017-12-24T12:16:44.225Z,6992.00
2017-12-24T12:17:44.272Z,6892.00
2017-12-24T12:18:44.325Z,6868.00
2017-12-24T12:19:44.353Z,6852.00
2017-12-24T12:20:44.415Z,6884.00
2017-12-24T12:21:44.443Z,6940.00
2017-12-24T12:22:44.481Z,7124.00
2017-12-24T12:23:44.523Z,7348.00
2017-12-24T12:24:44.568Z,7492.00
2017-12-24T12:25:44.628Z,7576.00
2017-12-24T12:26:44.654Z,7664.00
2017-12-24T12:27:44.713Z,7736.00
2017-12-24T12:28:44.737Z,7700.00
2017-12-24T12:29:44.782Z,7532.00
2017-12-24T12:30:44.828Z,7376.00
2017-12-24T12:31:44.865Z,7200.00
2017-12-24T12:32:44.925Z,7080.00
2017-12-24T12:33:44.952Z,7076.00
2017-12-24T12:34:45.000Z,7292.00
2017-12-24T12:35:45.041Z,7532.00
2017-12-24T12:36:45.082Z,7632.00
2017-12-24T12:37:45.152Z,7612.00
2017-12-24T12:38:45.164Z,7540.00
2017-12-24T12:39:45.206Z,7400.00
2017-12-24T12:40:45.254Z,7356.00
2017-12-24T12:41:45.293Z,7340.00
2017-12-24T12:42:45.357Z,7280.00
2017-12-24T12:43:45.398Z,7296.00
2017-12-24T12:44:45.421Z,7328.00
2017-12-24T12:45:45.469Z,7424.00